Andover, MN (55304)

1:51 PM CST on February 19, 2017 (GMT -0600)
Northern Andover | | Change Station

Elev 879 ft 45.29 °N, 93.37 °W | Updated 5 seconds ago

Partly Cloudy
Partly Cloudy
54.0 °F
Feels Like 54.0 °F
N
6.0
Wind Variable Wind from SSE
Gusts 8.0 mph

Today
High -- | Low -- °F
--% Chance of Precip.
Yesterday
High -- | Low -- °F
Precip. -- in
Pressure 29.92 in
Visibility 10.0 miles
Clouds Few 25000 ft
Dew Point 33.1 °F
Humidity 45%
Rainfall 1.65 in
Snow Depth Not available.
7:07 AM 5:46 PM
Last Quarter, 41% visible
METAR KANE 191845Z 14011KT 10SM FEW250 15/03 A2992
Pressure 29.92 in
Visibility 10.0 miles
Clouds Few 25000 ft
Dew Point 33.1 °F
Humidity 45%
Rainfall 1.65 in
Snow Depth Not available.
7:07 AM 5:46 PM
Last Quarter, 41% visible
METAR KANE 191845Z 14011KT 10SM FEW250 15/03 A2992

Get Your Daily Forecast Email!

Thanks for signing up!

Be on the lookout for a verification email in your inbox.

You'll start receiving the daily forecast at 8 AM.

×

10-Day Weather Forecast

Almanac

Astronomy

Feb. 19, 2017 Rise Set
Actual Time
Civil Twilight
Nautical Twilight
Astronomical Twilight
Moon
Length of Visible Light
Length of Day
Tomorrow will be .
, % of the Moon is Illuminated

Today's Extremes

State Highs State Lows

Community

WunderPhotos

Upload Photos

1,962,540 photos uploaded!

WunderBlog® & News

Nearby

Air Quality

  Air Quality AQ Index Pollutant
Not available.

Snow Depth

Station Depth Elevation

Earthquake Activity

City Distance Mag. Time & Date
Minimum magnitude displayed is 2.5.

Coastal Water Temperatures

Place Temperature

Stations

Nearby Weather Stations

Station Location Temp. Windchill Dew Point Humidity Wind Precip. Elev Updated Type
                   

Watches & Warnings

There are currently no watches in effect.